Time;durP1;ratioP1;P1;durP2;ratioP2;P2;SDS_P1;SDS_P2;PMS_P1;PMS_P2;Temp;Humidity;BMP_temperature;BMP_pressure;BME280_temperature;BME280_humidity;BME280_pressure;Samples;Min_cycle;Max_cycle;Signal;HPM_P1;HPM_P2
2022/01/07 00:01:32;;;;;;;28.50;9.90;;;;;;;-4.68;78.46;98884.00;106520;1277;137244;-88
2022/01/07 00:03:59;;;;;;;23.00;10.00;;;;;;;-4.70;78.60;98882.23;106230;1278;22557;-87
2022/01/07 00:06:25;;;;;;;24.20;10.20;;;;;;;-4.73;78.57;98886.92;106364;1278;137803;-89
2022/01/07 00:08:51;;;;;;;23.00;9.70;;;;;;;-4.75;78.39;98889.64;106310;1278;22609;-86
2022/01/07 00:11:21;;;;;;;23.30;10.10;;;;;;;-4.77;78.56;98893.11;106356;1277;22587;-86
2022/01/07 00:13:51;;;;;;;25.10;10.10;;;;;;;-4.76;78.69;98901.54;106049;1277;138907;-87
2022/01/07 00:16:17;;;;;;;25.00;11.80;;;;;;;-4.76;78.88;98904.04;106225;1277;22551;-87
2022/01/07 00:18:44;;;;;;;27.60;11.20;;;;;;;-4.75;78.81;98911.55;106124;1277;137662;-87
2022/01/07 00:21:11;;;;;;;28.80;11.30;;;;;;;-4.74;78.90;98912.91;106399;1277;22740;-87
2022/01/07 00:23:39;;;;;;;26.70;10.60;;;;;;;-4.74;78.68;98910.95;106310;1277;22557;-87
2022/01/07 00:26:06;;;;;;;22.10;10.50;;;;;;;-4.78;78.71;98916.89;106163;1277;137550;-87
2022/01/07 00:28:32;;;;;;;20.70;8.80;;;;;;;-4.81;78.88;98918.45;106302;1277;23355;-87
2022/01/07 00:30:59;;;;;;;22.00;9.60;;;;;;;-4.85;78.90;98914.94;106240;1277;137386;-87
2022/01/07 00:33:25;;;;;;;19.80;8.70;;;;;;;-4.86;78.87;98910.98;105961;1278;22546;-87
2022/01/07 00:35:52;;;;;;;18.60;8.40;;;;;;;-4.86;78.86;98913.40;106353;1277;24269;-87
2022/01/07 00:38:19;;;;;;;17.60;8.20;;;;;;;-4.85;78.95;98917.92;106307;1277;137308;-87
2022/01/07 00:40:45;;;;;;;18.80;8.20;;;;;;;-4.85;78.72;98918.81;106354;1277;22543;-87
2022/01/07 00:43:11;;;;;;;16.20;7.40;;;;;;;-4.86;79.38;98923.80;106318;1277;137980;-87
2022/01/07 00:45:39;;;;;;;17.00;7.50;;;;;;;-4.85;79.05;98924.66;106167;1277;30751;-87
2022/01/07 00:48:05;;;;;;;16.40;7.60;;;;;;;-4.86;79.04;98929.52;106136;1280;25496;-87
2022/01/07 00:50:32;;;;;;;19.20;8.10;;;;;;;-4.87;78.94;98928.59;106243;1277;137547;-87
2022/01/07 00:52:59;;;;;;;18.00;7.50;;;;;;;-4.90;78.62;98933.96;106460;1277;26475;-87
2022/01/07 00:55:26;;;;;;;18.10;8.50;;;;;;;-4.92;79.01;98929.86;106165;1278;137497;-87
2022/01/07 00:57:56;;;;;;;15.20;7.40;;;;;;;-4.91;79.06;98938.52;106341;1276;22622;-88
2022/01/07 01:00:24;;;;;;;19.40;8.20;;;;;;;-4.90;79.07;98939.32;106060;1277;22555;-87
2022/01/07 01:02:52;;;;;;;20.40;8.50;;;;;;;-4.90;78.99;98943.51;106231;1277;136956;-87
2022/01/07 01:05:23;;;;;;;20.50;9.30;;;;;;;-4.90;79.21;98936.45;106168;1280;22652;-87
2022/01/07 01:07:52;;;;;;;23.70;10.80;;;;;;;-4.90;78.72;98933.08;106071;1278;137976;-87
2022/01/07 01:10:22;;;;;;;26.80;9.70;;;;;;;-4.93;79.00;98940.20;106242;1278;24402;-87
2022/01/07 01:12:49;;;;;;;26.80;9.90;;;;;;;-4.96;78.97;98946.82;106070;1280;137557;-86
2022/01/07 01:15:23;;;;;;;24.60;10.80;;;;;;;-4.99;79.26;98948.48;106356;1277;22571;-87
2022/01/07 01:17:54;;;;;;;26.10;10.00;;;;;;;-5.02;78.97;98947.07;106250;1278;26675;-86
2022/01/07 01:20:21;;;;;;;25.00;9.10;;;;;;;-5.04;78.81;98941.36;106265;1277;137813;-86
2022/01/07 01:22:48;;;;;;;25.70;11.20;;;;;;;-5.05;78.89;98938.30;106504;1277;22573;-87
2022/01/07 01:25:14;;;;;;;29.10;11.50;;;;;;;-5.03;79.22;98943.77;106150;1280;137553;-87
2022/01/07 01:27:41;;;;;;;27.90;12.30;;;;;;;-5.05;79.07;98941.09;106510;1277;25577;-87
2022/01/07 01:30:11;;;;;;;31.40;12.00;;;;;;;-5.08;79.06;98942.48;106282;1277;22599;-88
2022/01/07 01:32:38;;;;;;;35.00;12.20;;;;;;;-5.14;79.16;98940.64;106361;1277;138248;-86
2022/01/07 01:35:07;;;;;;;33.50;12.30;;;;;;;-5.18;79.04;98943.84;106206;1278;25248;-87
2022/01/07 01:37:37;;;;;;;29.30;11.80;;;;;;;-5.23;79.11;98948.29;105967;1277;138245;-87
2022/01/07 01:40:07;;;;;;;29.80;11.10;;;;;;;-5.24;79.21;98951.77;105867;1278;24285;-87
2022/01/07 01:42:33;;;;;;;28.90;11.30;;;;;;;-5.26;79.37;98948.76;105933;1277;137642;-87
2022/01/07 01:45:00;;;;;;;28.30;11.80;;;;;;;-5.28;79.59;98952.42;106069;1277;24044;-87
2022/01/07 01:47:26;;;;;;;36.00;13.00;;;;;;;-5.32;79.84;98951.74;105943;1280;22726;-88
2022/01/07 01:49:56;;;;;;;27.60;11.30;;;;;;;-5.36;79.83;98946.73;105543;1278;137836;-87
2022/01/07 01:52:22;;;;;;;;;;;;;;;-5.41;79.53;98943.50;105867;1280;25249;-87
2022/01/07 01:54:48;;;;;;;20.50;10.10;;;;;;;-5.47;79.68;98943.33;105900;1277;124517;-87
2022/01/07 01:57:14;;;;;;;25.50;10.90;;;;;;;-5.52;79.88;98941.04;105893;1280;30571;-86
2022/01/07 01:59:41;;;;;;;25.60;10.70;;;;;;;-5.53;80.07;98940.58;106025;1277;24233;-86
2022/01/07 02:02:10;;;;;;;28.10;11.40;;;;;;;-5.51;80.51;98937.83;105826;1277;137442;-86
2022/01/07 02:04:39;;;;;;;28.40;11.70;;;;;;;-5.51;80.53;98938.70;106345;1277;22689;-87
2022/01/07 02:07:11;;;;;;;28.30;12.40;;;;;;;-5.53;80.43;98937.95;105983;1277;138280;-87
2022/01/07 02:09:38;;;;;;;34.50;13.80;;;;;;;-5.55;80.48;98938.48;105838;1280;25491;-86
2022/01/07 02:12:06;;;;;;;29.80;12.00;;;;;;;-5.58;80.43;98932.48;105944;1277;24952;-86
2022/01/07 02:14:36;;;;;;;31.50;13.20;;;;;;;-5.60;80.49;98928.07;105892;1277;137857;-86
2022/01/07 02:17:08;;;;;;;30.10;12.40;;;;;;;-5.61;80.76;98930.34;105861;1277;24234;-87
2022/01/07 02:19:38;;;;;;;25.30;11.20;;;;;;;-5.60;80.72;98928.61;105857;1277;138187;-86
2022/01/07 02:22:04;;;;;;;26.30;12.00;;;;;;;-5.58;80.77;98926.34;105851;1277;23296;-86
2022/01/07 02:24:48;;;;;;;26.40;11.50;;;;;;;-5.55;81.04;98919.23;106053;1277;137727;-86
2022/01/07 02:27:17;;;;;;;30.20;10.50;;;;;;;-5.54;81.36;98920.55;105601;1280;22644;-87
2022/01/07 02:29:46;;;;;;;29.70;11.60;;;;;;;-5.53;81.22;98919.19;105815;1277;22569;-86
2022/01/07 02:32:12;;;;;;;;;;;;;;;-5.52;81.36;98921.95;105917;1280;138506;-88
2022/01/07 02:34:43;;;;;;;33.80;12.00;;;;;;;-5.54;81.06;98920.99;105924;1280;22574;-88
2022/01/07 02:37:10;;;;;;;31.00;12.90;;;;;;;-5.57;81.38;98917.77;106013;1277;137895;-88
2022/01/07 02:39:37;;;;;;;40.20;15.10;;;;;;;-5.58;81.20;98916.42;105907;1278;24295;-87
2022/01/07 02:42:03;;;;;;;35.10;12.70;;;;;;;-5.58;81.10;98915.38;106103;1277;22663;-88
2022/01/07 02:44:30;;;;;;;36.30;13.30;;;;;;;-5.58;81.19;98908.51;105811;1277;137337;-88
2022/01/07 02:47:01;;;;;;;37.90;12.30;;;;;;;-5.59;81.23;98907.29;105735;1277;25244;-87
2022/01/07 02:49:28;;;;;;;41.90;13.90;;;;;;;-5.60;81.33;98910.77;105733;1280;137973;-87
2022/01/07 02:51:55;;;;;;;40.90;13.70;;;;;;;-5.61;81.59;98911.06;105851;1280;22714;-87
2022/01/07 02:54:21;;;;;;;43.30;15.70;;;;;;;-5.63;81.30;98909.45;106014;1277;22562;-87
2022/01/07 02:56:47;;;;;;;45.30;17.50;;;;;;;-5.66;81.22;98915.71;105782;1278;137685;-86
2022/01/07 02:59:14;;;;;;;41.20;15.60;;;;;;;-5.68;81.19;98922.79;105945;1278;24669;-87
2022/01/07 03:01:40;;;;;;;37.30;14.70;;;;;;;-5.66;81.51;98927.60;105858;1278;138148;-87
2022/01/07 03:04:08;;;;;;;34.10;14.20;;;;;;;-5.64;81.40;98931.79;105921;1277;26533;-87
2022/01/07 03:06:35;;;;;;;33.60;14.10;;;;;;;-5.61;81.80;98936.67;105837;1277;137660;-86
2022/01/07 03:09:04;;;;;;;30.50;13.90;;;;;;;-5.59;81.79;98931.95;105616;1280;25329;-87
2022/01/07 03:11:31;;;;;;;35.50;15.20;;;;;;;-5.59;81.79;98933.02;105580;1280;25426;-85
2022/01/07 03:13:58;;;;;;;38.00;15.80;;;;;;;-5.61;81.76;98932.08;105500;1280;137667;-86
2022/01/07 03:16:24;;;;;;;40.80;16.50;;;;;;;-5.62;81.71;98934.85;105848;1280;22560;-86
2022/01/07 03:18:50;;;;;;;33.20;15.50;;;;;;;-5.65;81.48;98930.52;106119;1277;138371;-85
2022/01/07 03:21:21;;;;;;;30.50;13.80;;;;;;;-5.65;81.85;98927.29;105954;1277;22615;-86
2022/01/07 03:23:48;;;;;;;34.40;13.70;;;;;;;-5.63;82.08;98928.55;106119;1278;22563;-86
2022/01/07 03:26:14;;;;;;;34.40;14.90;;;;;;;-5.65;81.71;98923.77;105819;1277;137380;-87
2022/01/07 03:28:41;;;;;;;29.30;13.40;;;;;;;-5.66;82.00;98921.02;105624;1277;22602;-86
2022/01/07 03:31:07;;;;;;;36.50;13.70;;;;;;;-5.67;81.75;98927.32;105820;1277;138260;-85
2022/01/07 03:33:34;;;;;;;32.60;16.10;;;;;;;-5.70;82.24;98925.82;106041;1277;24576;-86
2022/01/07 03:36:00;;;;;;;37.10;15.10;;;;;;;-5.72;81.90;98932.45;105994;1280;24323;-85
2022/01/07 03:38:27;;;;;;;30.40;14.00;;;;;;;-5.71;81.99;98934.19;106352;1276;138427;-85
2022/01/07 03:40:53;;;;;;;28.20;13.50;;;;;;;-5.71;82.02;98929.05;106235;1277;22571;-87
2022/01/07 03:43:20;;;;;;;34.60;15.30;;;;;;;-5.69;81.98;98932.80;106225;1277;137347;-87
2022/01/07 03:45:46;;;;;;;33.00;13.70;;;;;;;-5.67;82.13;98937.24;106168;1277;24870;-88
2022/01/07 03:48:12;;;;;;;30.90;13.10;;;;;;;-5.68;81.90;98936.98;106500;1277;23928;-86
2022/01/07 03:50:38;;;;;;;31.50;15.10;;;;;;;-5.69;82.18;98934.23;106028;1277;137766;-84
2022/01/07 03:53:05;;;;;;;33.30;13.50;;;;;;;-5.71;82.08;98934.16;106206;1277;22552;-85
2022/01/07 03:55:32;;;;;;;28.70;13.00;;;;;;;-5.69;82.30;98932.44;106163;1280;138370;-86
2022/01/07 03:58:00;;;;;;;29.60;13.20;;;;;;;-5.69;81.97;98935.98;106289;1277;22560;-85
2022/01/07 04:00:33;;;;;;;34.90;13.80;;;;;;;-5.70;81.91;98936.05;106307;1277;22556;-85
2022/01/07 04:03:08;;;;;;;30.20;13.80;;;;;;;-5.71;82.01;98939.82;106151;1277;137955;-85
2022/01/07 04:05:34;;;;;;;34.70;13.60;;;;;;;-5.72;82.05;98938.45;106345;1277;22802;-85
2022/01/07 04:08:01;;;;;;;33.50;14.70;;;;;;;-5.73;82.06;98937.70;106036;1278;138814;-85
2022/01/07 04:10:27;;;;;;;34.90;14.90;;;;;;;-5.75;82.06;98934.70;106259;1277;24256;-85
2022/01/07 04:12:53;;;;;;;32.00;13.90;;;;;;;-5.76;82.00;98936.21;106104;1277;137990;-85
2022/01/07 04:15:23;;;;;;;30.70;13.10;;;;;;;-5.77;81.85;98929.56;106290;1278;23567;-85
2022/01/07 04:17:51;;;;;;;33.00;13.70;;;;;;;-5.82;81.85;98927.48;106413;1277;22746;-85
2022/01/07 04:20:24;;;;;;;29.80;14.00;;;;;;;-5.88;82.04;98920.92;106233;1277;138007;-86
2022/01/07 04:22:51;;;;;;;36.20;14.60;;;;;;;-5.96;81.87;98923.38;106280;1277;22590;-86
2022/01/07 04:25:20;;;;;;;34.10;13.70;;;;;;;-6.03;82.25;98918.17;106220;1277;137807;-86
2022/01/07 04:27:53;;;;;;;34.30;15.30;;;;;;;-6.09;82.06;98919.04;106324;1277;22576;-86
2022/01/07 04:30:21;;;;;;;37.90;15.50;;;;;;;-6.14;81.97;98917.49;106346;1278;29443;-86
2022/01/07 04:32:48;;;;;;;29.10;13.60;;;;;;;-6.16;82.48;98908.83;106159;1280;138662;-86
2022/01/07 04:35:16;;;;;;;30.20;12.00;;;;;;;-6.17;82.40;98910.61;106230;1280;23297;-86
2022/01/07 04:37:42;;;;;;;37.30;14.90;;;;;;;-6.19;82.47;98917.32;106145;1277;137836;-86
2022/01/07 04:40:11;;;;;;;29.00;11.10;;;;;;;-6.20;82.83;98915.30;106251;1277;25067;-86
2022/01/07 04:42:37;;;;;;;33.20;14.40;;;;;;;-6.22;82.89;98915.65;106066;1277;22544;-86
2022/01/07 04:45:07;;;;;;;32.80;14.80;;;;;;;-6.24;83.35;98913.51;106103;1277;138171;-86
2022/01/07 04:47:36;;;;;;;34.40;14.90;;;;;;;-6.24;83.08;98915.77;106400;1277;25422;-86
2022/01/07 04:50:09;;;;;;;27.90;13.30;;;;;;;-6.23;83.15;98917.14;106259;1277;137683;-86
2022/01/07 04:52:36;;;;;;;30.70;14.40;;;;;;;-6.20;83.37;98916.37;106289;1280;25324;-86
2022/01/07 04:55:03;;;;;;;32.80;14.50;;;;;;;-6.19;83.28;98919.96;106010;1278;137739;-86
2022/01/07 04:57:29;;;;;;;34.50;14.40;;;;;;;-6.19;83.05;98921.02;106218;1278;25234;-86
2022/01/07 04:59:55;;;;;;;39.60;19.20;;;;;;;-6.18;83.56;98923.63;106098;1277;22576;-86
2022/01/07 05:02:22;;;;;;;36.90;16.80;;;;;;;-6.18;83.24;98922.02;106241;1277;138970;-86
2022/01/07 05:04:48;;;;;;;31.20;14.30;;;;;;;-6.15;83.24;98923.73;106239;1277;25057;-86
2022/01/07 05:07:16;;;;;;;34.40;15.00;;;;;;;-6.12;83.51;98923.63;106282;1277;137970;-86
2022/01/07 05:09:43;;;;;;;33.80;14.00;;;;;;;-6.07;83.22;98928.41;106176;1278;22561;-87
2022/01/07 05:12:09;;;;;;;27.90;13.70;;;;;;;-6.04;83.37;98930.05;106428;1277;24319;-87
2022/01/07 05:14:35;;;;;;;38.40;14.30;;;;;;;-6.02;83.11;98939.95;106142;1277;137650;-87
2022/01/07 05:17:02;;;;;;;35.30;15.10;;;;;;;-6.00;83.19;98943.14;106144;1277;22557;-88
2022/01/07 05:19:28;;;;;;;37.80;15.30;;;;;;;-5.99;82.87;98946.80;106158;1277;138616;-86
2022/01/07 05:21:54;;;;;;;37.70;17.20;;;;;;;-6.02;82.71;98945.48;106311;1280;22568;-86
2022/01/07 05:24:35;;;;;;;34.00;15.20;;;;;;;-6.04;82.51;98945.45;106108;1280;22626;-86
2022/01/07 05:27:02;;;;;;;30.00;15.60;;;;;;;-6.06;82.41;98946.64;106132;1278;138128;-87
2022/01/07 05:29:28;;;;;;;36.50;15.60;;;;;;;-6.07;82.08;98943.25;106193;1278;25371;-86
2022/01/07 05:31:55;;;;;;;38.70;16.70;;;;;;;-6.11;81.89;98946.38;106421;1277;137474;-86
2022/01/07 05:34:21;;;;;;;37.90;17.00;;;;;;;-6.14;81.72;98949.61;106300;1277;24353;-86
2022/01/07 05:36:47;;;;;;;38.80;16.60;;;;;;;-6.18;81.79;98949.59;106280;1277;138207;-87
2022/01/07 05:39:13;;;;;;;40.30;16.50;;;;;;;-6.24;81.95;98943.92;106171;1277;22575;-86
2022/01/07 05:41:40;;;;;;;31.40;16.30;;;;;;;-6.30;81.96;98941.05;106346;1277;22587;-86
2022/01/07 05:44:06;;;;;;;34.20;18.50;;;;;;;-6.36;82.11;98939.88;106105;1277;137821;-86
2022/01/07 05:46:33;;;;;;;40.50;17.50;;;;;;;-6.37;81.87;98938.65;106270;1277;25441;-86
2022/01/07 05:48:59;;;;;;;38.20;16.20;;;;;;;-6.37;82.55;98942.16;106022;1277;137492;-86
2022/01/07 05:51:25;;;;;;;35.30;15.60;;;;;;;-6.36;82.78;98939.07;106302;1277;25365;-85
2022/01/07 05:53:51;;;;;;;32.40;14.40;;;;;;;-6.33;83.11;98942.11;106088;1277;22545;-86
2022/01/07 05:56:18;;;;;;;39.40;15.40;;;;;;;-6.31;82.83;98940.08;106123;1277;137849;-88
2022/01/07 05:58:59;;;;;;;40.80;15.20;;;;;;;-6.31;83.02;98938.84;106223;1277;22550;-86
2022/01/07 06:01:25;;;;;;;42.90;19.10;;;;;;;-6.33;83.08;98935.28;106234;1277;137954;-86
2022/01/07 06:03:51;;;;;;;32.80;17.40;;;;;;;-6.34;83.30;98928.79;106313;1277;22575;-86
2022/01/07 06:06:18;;;;;;;36.20;16.10;;;;;;;-6.32;83.23;98924.08;106303;1277;25522;-88
2022/01/07 06:08:44;;;;;;;36.30;16.30;;;;;;;-6.28;83.33;98924.66;106262;1277;137348;-86
2022/01/07 06:11:10;;;;;;;30.80;13.90;;;;;;;-6.25;83.51;98925.11;106525;1277;22556;-85
2022/01/07 06:13:37;;;;;;;35.30;13.70;;;;;;;-6.24;83.00;98921.10;106205;1277;137804;-87
2022/01/07 06:16:04;;;;;;;32.10;12.90;;;;;;;-6.25;83.03;98925.11;106272;1277;22564;-86
2022/01/07 06:18:30;;;;;;;32.80;13.00;;;;;;;-6.28;83.01;98922.17;106050;1277;22542;-85
2022/01/07 06:20:56;;;;;;;35.70;13.80;;;;;;;-6.28;82.85;98926.55;106336;1277;137427;-84
2022/01/07 06:23:22;;;;;;;31.30;13.10;;;;;;;-6.27;82.82;98924.58;106239;1277;22664;-86
2022/01/07 06:25:49;;;;;;;29.90;12.90;;;;;;;-6.26;82.77;98920.56;106133;1277;138799;-85
2022/01/07 06:28:17;;;;;;;30.10;13.40;;;;;;;-6.25;82.62;98918.02;106309;1277;23254;-85
2022/01/07 06:30:44;;;;;;;29.10;10.90;;;;;;;-6.23;82.46;98924.27;106197;1277;137648;-85
2022/01/07 06:33:10;;;;;;;35.10;12.90;;;;;;;-6.22;82.53;98928.56;106309;1277;24299;-86
2022/01/07 06:35:37;;;;;;;39.90;14.00;;;;;;;-6.23;82.63;98930.73;106243;1277;25467;-85
2022/01/07 06:38:04;;;;;;;39.00;15.00;;;;;;;-6.24;82.52;98927.52;105980;1277;137487;-85
2022/01/07 06:40:30;;;;;;;37.00;15.50;;;;;;;-6.28;82.16;98922.29;105924;1277;25617;-85
2022/01/07 06:42:57;;;;;;;32.10;16.00;;;;;;;-6.31;81.76;98923.30;105921;1277;137836;-85
2022/01/07 06:45:23;;;;;;;33.20;14.60;;;;;;;-6.38;82.09;98921.67;106030;1277;24096;-85
2022/01/07 06:47:49;;;;;;;30.00;13.50;;;;;;;-6.39;82.34;98921.48;106164;1277;24288;-85
2022/01/07 06:50:16;;;;;;;33.60;14.70;;;;;;;-6.37;82.57;98912.79;106095;1277;137332;-86
2022/01/07 06:52:42;;;;;;;32.80;15.30;;;;;;;-6.36;82.38;98911.30;106081;1277;26753;-85
2022/01/07 06:55:09;;;;;;;28.70;13.60;;;;;;;-6.37;82.20;98914.05;106084;1277;137934;-85
2022/01/07 06:57:36;;;;;;;32.40;14.20;;;;;;;-6.41;81.94;98907.15;106585;1276;22559;-85
2022/01/07 07:00:04;;;;;;;36.30;14.60;;;;;;;-6.43;82.18;98909.39;106412;1277;22635;-85
2022/01/07 07:02:30;;;;;;;26.60;12.50;;;;;;;-6.43;82.34;98909.02;106424;1277;137474;-85
2022/01/07 07:04:57;;;;;;;37.80;15.80;;;;;;;-6.42;82.36;98908.48;106262;1277;22559;-85
2022/01/07 07:07:23;;;;;;;33.40;15.20;;;;;;;-6.42;81.96;98907.23;106729;1277;138648;-85
2022/01/07 07:09:49;;;;;;;28.50;13.60;;;;;;;-6.42;81.78;98906.52;106937;1277;22715;-86
2022/01/07 07:12:16;;;;;;;28.70;14.10;;;;;;;-6.41;82.19;98908.77;106566;1277;22546;-85
2022/01/07 07:14:43;;;;;;;37.60;15.30;;;;;;;-6.38;82.30;98906.52;106380;1274;137588;-85
2022/01/07 07:17:12;;;;;;;33.80;14.30;;;;;;;-6.35;81.85;98907.55;106511;1277;25509;-86
2022/01/07 07:19:38;;;;;;;36.00;15.50;;;;;;;-6.34;82.18;98904.46;106335;1277;138128;-85
2022/01/07 07:22:05;;;;;;;31.30;13.40;;;;;;;-6.33;82.23;98905.39;106578;1277;23346;-85
2022/01/07 07:24:31;;;;;;;34.90;16.20;;;;;;;-6.31;82.11;98895.55;106601;1277;22623;-85
2022/01/07 07:26:58;;;;;;;42.00;18.40;;;;;;;-6.27;82.19;98894.90;106444;1277;137751;-85
2022/01/07 07:29:24;;;;;;;33.90;16.60;;;;;;;-6.24;82.41;98897.80;106423;1277;22659;-85
2022/01/07 07:31:55;;;;;;;32.00;14.60;;;;;;;-6.19;81.98;98900.95;106374;1277;138456;-85
2022/01/07 07:37:08;;;;;;;38.70;15.10;;;;;;;-6.11;82.18;98903.42;106462;1277;137478;-85
2022/01/07 07:39:34;;;;;;;39.50;14.80;;;;;;;-6.04;81.92;98901.77;106572;1277;22586;-85
2022/01/07 07:42:00;;;;;;;39.90;15.60;;;;;;;-5.97;82.19;98903.96;106200;1277;22554;-85
2022/01/07 07:44:29;;;;;;;29.20;14.20;;;;;;;-5.90;81.89;98904.08;106158;1277;138143;-86
2022/01/07 07:46:57;;;;;;;33.30;13.10;;;;;;;-5.82;81.75;98910.67;106345;1277;23312;-85
2022/01/07 07:49:24;;;;;;;25.80;13.40;;;;;;;-5.75;81.63;98904.29;106390;1277;137821;-86
2022/01/07 07:52:06;;;;;;;28.80;13.20;;;;;;;-5.66;81.36;98903.02;106605;1276;23175;-86
2022/01/07 07:54:32;;;;;;;29.90;12.90;;;;;;;-5.57;81.40;98911.05;106431;1277;22622;-86
2022/01/07 07:56:59;;;;;;;28.10;12.70;;;;;;;-5.47;81.35;98909.33;106315;1277;137587;-86
2022/01/07 07:59:26;;;;;;;32.60;14.70;;;;;;;-5.38;81.35;98906.25;106893;1277;22623;-86
2022/01/07 08:01:53;;;;;;;29.70;14.10;;;;;;;-5.29;81.20;98909.89;106347;1277;137685;-86
2022/01/07 08:04:21;;;;;;;26.80;14.20;;;;;;;-5.21;81.10;98906.71;106429;1277;22599;-86
2022/01/07 08:06:48;;;;;;;28.80;13.80;;;;;;;-5.13;81.05;98911.30;106515;1277;22573;-86
2022/01/07 08:09:15;;;;;;;35.80;16.30;;;;;;;-5.07;80.58;98910.61;106676;1277;137792;-86
2022/01/07 08:11:50;;;;;;;42.30;19.90;;;;;;;-5.02;80.44;98907.92;106018;1280;137720;-87
2022/01/07 08:17:05;;;;;;;32.70;16.70;;;;;;;-4.94;79.66;98913.74;106097;1277;138419;-86
2022/01/07 08:19:32;;;;;;;32.20;16.00;;;;;;;-4.90;79.74;98918.37;106286;1277;22566;-87
2022/01/07 08:21:59;;;;;;;37.50;15.50;;;;;;;-4.83;79.59;98921.28;106379;1277;22594;-86
2022/01/07 08:24:25;;;;;;;37.40;16.40;;;;;;;-4.77;79.33;98917.57;106116;1277;137586;-87
2022/01/07 08:26:51;;;;;;;30.90;14.90;;;;;;;-4.71;79.08;98915.60;106172;1277;22536;-87
2022/01/07 08:29:20;;;;;;;28.00;14.00;;;;;;;-4.68;78.95;98911.98;105978;1277;137797;-87
2022/01/07 08:36:59;;;;;;;29.90;13.40;;;;;;;-4.53;78.40;98898.81;105875;1277;137844;-87
2022/01/07 08:39:27;;;;;;;25.00;10.60;;;;;;;-4.48;78.68;98895.65;106399;1277;24487;-87
2022/01/07 08:42:00;;;;;;;22.80;11.00;;;;;;;-4.45;77.74;98888.67;105742;1277;137745;-87
2022/01/07 08:44:27;;;;;;;26.60;11.20;;;;;;;-4.42;77.23;98894.23;106268;1278;24269;-87
2022/01/07 08:46:54;;;;;;;30.10;13.20;;;;;;;-4.39;77.09;98892.71;106036;1277;138287;-87
2022/01/07 08:49:21;;;;;;;25.30;12.20;;;;;;;-4.34;76.73;98892.33;106244;1277;24685;-87
2022/01/07 08:51:47;;;;;;;25.70;12.00;;;;;;;-4.29;76.92;98892.23;106237;1277;22583;-87
2022/01/07 08:54:14;;;;;;;24.60;13.00;;;;;;;-4.25;76.60;98902.61;106039;1277;138745;-87
2022/01/07 08:56:40;;;;;;;27.10;12.70;;;;;;;-4.19;76.18;98903.71;106144;1277;22547;-87
2022/01/07 08:59:07;;;;;;;28.10;12.30;;;;;;;-4.13;76.12;98910.80;105859;1280;138844;-87
2022/01/07 09:01:33;;;;;;;30.20;14.70;;;;;;;-4.07;76.19;98908.33;106582;1277;22572;-87
2022/01/07 09:04:01;;;;;;;31.80;15.00;;;;;;;-4.02;76.02;98910.12;106057;1277;22566;-88
2022/01/07 09:06:27;;;;;;;29.60;15.60;;;;;;;-3.95;76.07;98904.94;106114;1277;138444;-88
2022/01/07 09:08:54;;;;;;;33.70;16.50;;;;;;;-3.89;76.11;98911.23;106018;1277;22733;-88
2022/01/07 09:11:20;;;;;;;29.80;15.90;;;;;;;-3.78;76.19;98908.70;105870;1277;138198;-87
2022/01/07 09:13:48;;;;;;;38.60;17.00;;;;;;;-3.68;76.10;98904.71;106328;1277;23252;-88
2022/01/07 09:16:15;;;;;;;31.20;14.50;;;;;;;-3.57;75.97;98896.94;106301;1277;22551;-88
2022/01/07 09:18:43;;;;;;;31.90;15.40;;;;;;;-3.47;75.87;98895.99;105849;1277;137681;-88
2022/01/07 09:21:10;;;;;;;34.90;15.90;;;;;;;-3.37;75.63;98898.77;105973;1277;22550;-88
2022/01/07 09:23:41;;;;;;;34.80;16.60;;;;;;;-3.28;75.67;98897.55;105974;1277;137868;-88
2022/01/07 09:26:09;;;;;;;36.10;14.70;;;;;;;-3.18;75.64;98895.05;106441;1277;22617;-88
2022/01/07 09:28:36;;;;;;;32.50;16.60;;;;;;;-3.08;75.27;98887.50;105877;1277;137642;-87
2022/01/07 09:31:03;;;;;;;36.20;16.50;;;;;;;-3.00;75.07;98883.16;106081;1277;276925;-87
2022/01/07 09:33:30;;;;;;;31.00;14.50;;;;;;;-2.93;74.52;98885.64;106034;1277;22778;-88
2022/01/07 09:35:57;;;;;;;28.10;12.80;;;;;;;-2.85;74.61;98881.60;106059;1277;137857;-86
2022/01/07 09:38:25;;;;;;;24.40;12.30;;;;;;;-2.77;74.01;98888.23;106111;1277;25462;-87
2022/01/07 09:40:51;;;;;;;28.70;12.70;;;;;;;-2.68;74.11;98883.86;105776;1277;137830;-87
2022/01/07 09:43:18;;;;;;;28.60;13.60;;;;;;;-2.62;73.85;98877.56;105862;1277;25326;-87
2022/01/07 09:45:45;;;;;;;23.60;12.00;;;;;;;-2.54;73.73;98877.51;106114;1277;22642;-87
2022/01/07 09:48:11;;;;;;;22.90;12.10;;;;;;;-2.46;73.48;98875.69;105877;1277;137682;-87
2022/01/07 09:50:38;;;;;;;23.70;11.10;;;;;;;-2.41;73.12;98875.11;105954;1277;22576;-87
2022/01/07 09:53:13;;;;;;;20.10;9.90;;;;;;;-2.35;72.97;98872.38;105975;1277;137927;-85
2022/01/07 09:55:42;;;;;;;21.10;9.40;;;;;;;-2.27;72.61;98869.80;106548;1277;22741;-86
2022/01/07 09:58:13;;;;;;;22.90;9.70;;;;;;;-2.19;71.89;98873.86;106411;1277;22664;-86
2022/01/07 10:00:42;;;;;;;18.80;9.50;;;;;;;-2.13;71.59;98870.10;105736;1277;139133;-85
2022/01/07 10:03:10;;;;;;;15.50;8.00;;;;;;;-2.07;71.48;98871.23;106167;1277;22616;-85
2022/01/07 10:05:45;;;;;;;17.40;7.40;;;;;;;-2.00;71.00;98864.33;106026;1280;137594;-85
2022/01/07 10:08:23;;;;;;;12.30;6.60;;;;;;;-1.93;70.26;98863.61;106908;1277;22556;-88
2022/01/07 10:11:14;;;;;;;15.30;7.30;;;;;;;-1.87;69.20;98862.83;106225;1277;137835;-86
2022/01/07 10:13:44;;;;;;;17.10;8.70;;;;;;;-1.83;69.24;98852.42;106598;1276;25316;-85
2022/01/07 10:16:15;;;;;;;18.60;9.60;;;;;;;-1.76;69.15;98843.23;106945;1277;23214;-85
2022/01/07 10:18:42;;;;;;;17.70;8.10;;;;;;;-1.68;69.13;98841.38;106169;1280;137489;-81
2022/01/07 10:21:10;;;;;;;18.00;7.80;;;;;;;-1.60;68.35;98848.56;106124;1280;22848;-83
2022/01/07 10:23:38;;;;;;;15.70;7.80;;;;;;;-1.53;68.29;98846.54;106062;1277;137492;-87
2022/01/07 10:26:13;;;;;;;17.50;8.20;;;;;;;-1.45;67.62;98845.38;106450;1277;25204;-85
2022/01/07 10:28:40;;;;;;;18.40;7.70;;;;;;;-1.37;67.35;98837.74;106215;1277;137831;-84
2022/01/07 10:31:08;;;;;;;14.40;7.30;;;;;;;-1.29;67.16;98832.89;106378;1277;22569;-84
2022/01/07 10:33:41;;;;;;;16.30;6.70;;;;;;;-1.21;66.91;98834.29;106129;1278;22592;-84
2022/01/07 10:36:07;;;;;;;13.80;7.30;;;;;;;-1.13;66.54;98830.14;106212;1277;137484;-84
2022/01/07 10:38:44;;;;;;;13.60;6.80;;;;;;;-1.06;66.51;98829.06;106210;1277;25379;-86
2022/01/07 10:41:13;;;;;;;17.40;7.90;;;;;;;-0.99;65.86;98824.38;105847;1277;137406;-86
2022/01/07 10:43:40;;;;;;;15.00;6.20;;;;;;;-0.90;65.40;98823.42;106173;1277;25439;-85
2022/01/07 10:46:31;;;;;;;13.10;6.20;;;;;;;-0.84;64.92;98819.55;106359;1277;24334;-85
2022/01/07 10:49:01;;;;;;;11.90;5.60;;;;;;;-0.78;64.27;98820.50;106144;1277;137073;-85
2022/01/07 10:51:33;;;;;;;13.30;5.50;;;;;;;-0.72;63.69;98817.39;106240;1277;22716;-86
2022/01/07 10:54:05;;;;;;;12.30;5.40;;;;;;;-0.65;63.47;98817.05;106148;1277;137239;-84
2022/01/07 10:56:32;;;;;;;13.70;5.80;;;;;;;-0.58;63.14;98819.27;106371;1277;22638;-85
2022/01/07 10:59:05;;;;;;;16.50;7.00;;;;;;;-0.51;63.03;98809.84;105981;1280;137423;-84
2022/01/07 11:01:56;;;;;;;11.70;5.90;;;;;;;-0.43;62.78;98803.43;105954;1280;24285;-84
2022/01/07 11:04:29;;;;;;;14.10;6.00;;;;;;;-0.35;63.00;98794.61;106176;1277;22569;-84
2022/01/07 11:06:58;;;;;;;15.10;6.20;;;;;;;-0.28;62.65;98794.18;106001;1277;137205;-85
2022/01/07 11:09:39;;;;;;;14.20;6.10;;;;;;;-0.24;62.40;98784.23;106421;1277;22563;-84
2022/01/07 11:12:06;;;;;;;17.40;6.90;;;;;;;-0.16;61.78;98783.41;106147;1277;137897;-84
2022/01/07 11:14:37;;;;;;;14.90;6.60;;;;;;;-0.10;61.50;98785.74;106265;1277;24623;-84
2022/01/07 11:17:06;;;;;;;14.10;5.20;;;;;;;-0.03;61.14;98779.11;105967;1277;137496;-83
2022/01/07 11:19:36;;;;;;;12.20;5.60;;;;;;;0.03;60.49;98778.14;106004;1277;22564;-85
2022/01/07 11:22:03;;;;;;;;;;;;;;;0.09;60.57;98772.60;106566;1277;22542;-85
2022/01/07 11:24:37;;;;;;;12.60;5.20;;;;;;;0.14;60.44;98767.98;106265;1277;124283;-85